createdAt,value
2017-10-29T00:00:48.192Z,972.10
2017-10-29T00:01:48.290Z,972.00
2017-10-29T00:02:48.000Z,971.91
2017-10-29T00:03:47.936Z,971.74
2017-10-29T00:04:47.867Z,971.69
2017-10-29T00:05:47.953Z,971.68
2017-10-29T00:06:47.711Z,971.67
2017-10-29T00:07:47.703Z,971.63
2017-10-29T00:08:47.607Z,971.65
2017-10-29T00:09:47.734Z,971.70
2017-10-29T00:10:47.724Z,971.73
2017-10-29T00:11:47.284Z,971.58
2017-10-29T00:12:47.192Z,971.49
2017-10-29T00:13:47.678Z,971.48
2017-10-29T00:14:47.252Z,971.45
2017-10-29T00:15:46.951Z,971.27
2017-10-29T00:16:46.951Z,971.30
2017-10-29T00:17:46.998Z,971.32
2017-10-29T00:18:46.719Z,971.36
2017-10-29T00:19:46.641Z,971.43
2017-10-29T00:20:46.788Z,971.39
2017-10-29T00:21:46.561Z,971.36
2017-10-29T00:22:46.531Z,971.38
2017-10-29T00:23:46.318Z,971.34
2017-10-29T00:24:46.440Z,971.36
2017-10-29T00:25:46.303Z,971.23
2017-10-29T00:26:46.075Z,971.12
2017-10-29T00:27:46.009Z,971.12
2017-10-29T00:28:45.913Z,971.10
2017-10-29T00:29:45.953Z,971.10
2017-10-29T00:30:45.809Z,971.06
2017-10-29T00:31:45.702Z,971.01
2017-10-29T00:32:45.626Z,971.09
2017-10-29T00:33:45.618Z,971.02
2017-10-29T00:34:45.512Z,971.13
2017-10-29T00:35:45.572Z,971.06
2017-10-29T00:36:45.438Z,971.10
2017-10-29T00:37:45.343Z,970.96
2017-10-29T00:38:45.272Z,970.88
2017-10-29T00:39:45.067Z,970.81
2017-10-29T00:40:44.957Z,970.75
2017-10-29T00:41:44.960Z,970.68
2017-10-29T00:42:44.870Z,970.74
2017-10-29T00:43:44.702Z,970.61
2017-10-29T00:44:44.700Z,970.49
2017-10-29T00:45:44.584Z,970.35
2017-10-29T00:46:44.587Z,970.33
2017-10-29T00:47:44.387Z,970.25
2017-10-29T00:48:44.503Z,970.29
2017-10-29T00:49:44.237Z,970.30
2017-10-29T00:50:44.221Z,970.28
2017-10-29T00:51:44.112Z,970.31
2017-10-29T00:52:44.046Z,970.40
2017-10-29T00:53:43.902Z,970.46
2017-10-29T00:54:43.837Z,970.31
2017-10-29T00:55:44.407Z,970.30
2017-10-29T00:56:43.734Z,970.29
2017-10-29T00:57:43.566Z,970.35
2017-10-29T00:58:43.486Z,970.30
2017-10-29T00:59:43.406Z,970.32
2017-10-29T01:00:43.324Z,970.37
2017-10-29T01:01:43.244Z,970.16
2017-10-29T01:02:43.164Z,970.16
2017-10-29T01:03:43.085Z,970.10
2017-10-29T01:04:43.002Z,970.14
2017-10-29T01:05:43.082Z,970.07
2017-10-29T01:06:42.874Z,970.17
2017-10-29T01:07:42.761Z,970.30
2017-10-29T01:08:42.680Z,970.25
2017-10-29T01:09:42.614Z,970.23
2017-10-29T01:10:42.519Z,970.04
2017-10-29T01:11:42.445Z,970.04
2017-10-29T01:12:42.357Z,970.07
2017-10-29T01:13:42.290Z,970.12
2017-10-29T01:14:42.197Z,970.14
2017-10-29T01:15:42.219Z,970.15
2017-10-29T01:16:42.037Z,970.03
2017-10-29T01:17:42.033Z,970.14
2017-10-29T01:18:41.932Z,970.04
2017-10-29T01:19:42.049Z,969.94
2017-10-29T01:20:41.796Z,970.06
2017-10-29T01:21:41.715Z,969.99
2017-10-29T01:22:41.676Z,969.95
2017-10-29T01:23:41.559Z,969.85
2017-10-29T01:24:41.388Z,969.92
2017-10-29T01:25:41.321Z,969.95
2017-10-29T01:26:41.264Z,969.94
2017-10-29T01:27:41.176Z,969.87
2017-10-29T01:28:41.098Z,969.90
2017-10-29T01:29:40.990Z,969.85
2017-10-29T01:30:40.913Z,969.74
2017-10-29T01:31:40.840Z,969.74
2017-10-29T01:32:40.752Z,969.74
2017-10-29T01:33:40.673Z,969.64
2017-10-29T01:34:40.582Z,969.56
2017-10-29T01:35:40.729Z,969.58
2017-10-29T01:36:40.459Z,969.57
2017-10-29T01:37:40.338Z,969.57
2017-10-29T01:38:40.319Z,969.64
2017-10-29T01:39:40.181Z,969.52
2017-10-29T01:40:40.341Z,969.42
2017-10-29T01:41:40.197Z,969.39
2017-10-29T01:42:40.030Z,969.36
2017-10-29T01:43:39.886Z,969.16
2017-10-29T01:44:39.874Z,969.17
2017-10-29T01:45:39.697Z,969.08
2017-10-29T01:46:39.664Z,969.14
2017-10-29T01:47:39.699Z,969.07
2017-10-29T01:48:39.469Z,969.03
2017-10-29T01:49:39.446Z,969.03
2017-10-29T01:50:39.288Z,968.88
2017-10-29T01:51:39.223Z,969.03
2017-10-29T01:52:39.129Z,968.99
2017-10-29T01:53:39.209Z,969.07
2017-10-29T01:54:38.998Z,968.90
2017-10-29T01:55:38.908Z,968.87
2017-10-29T01:56:38.808Z,968.82
2017-10-29T01:57:38.800Z,968.87
2017-10-29T01:58:38.740Z,968.88
2017-10-29T01:59:40.497Z,968.86
2017-10-29T02:00:38.565Z,968.84
2017-10-29T02:01:38.407Z,968.85
2017-10-29T02:02:38.322Z,968.84
2017-10-29T02:03:38.251Z,968.81
2017-10-29T02:04:38.234Z,968.70
2017-10-29T02:05:38.078Z,968.49
2017-10-29T02:06:38.003Z,968.54
2017-10-29T02:07:37.992Z,968.54
2017-10-29T02:08:37.871Z,968.44
2017-10-29T02:09:37.752Z,968.49
2017-10-29T02:10:37.782Z,968.38
2017-10-29T02:11:37.595Z,968.38
2017-10-29T02:12:37.803Z,968.43
2017-10-29T02:13:37.430Z,968.46
2017-10-29T02:14:37.354Z,968.35
2017-10-29T02:15:37.282Z,968.28
2017-10-29T02:16:37.189Z,968.19
2017-10-29T02:17:37.106Z,968.28
2017-10-29T02:18:37.027Z,968.21
2017-10-29T02:19:36.945Z,968.28
2017-10-29T02:20:36.865Z,968.22
2017-10-29T02:21:36.784Z,968.25
2017-10-29T02:22:36.705Z,968.20
2017-10-29T02:23:36.623Z,968.37
2017-10-29T02:24:36.543Z,968.20
2017-10-29T02:25:36.460Z,968.25
2017-10-29T02:26:36.381Z,968.27
2017-10-29T02:27:36.298Z,968.30
2017-10-29T02:28:36.218Z,968.28
2017-10-29T02:29:36.139Z,968.20
2017-10-29T02:30:36.057Z,968.21
2017-10-29T02:31:35.976Z,968.16
2017-10-29T02:32:35.904Z,968.12
2017-10-29T02:33:35.819Z,968.12
2017-10-29T02:34:35.734Z,968.11
2017-10-29T02:35:35.653Z,968.04
2017-10-29T02:36:35.573Z,968.10
2017-10-29T02:37:35.492Z,968.07
2017-10-29T02:38:35.411Z,968.09
2017-10-29T02:39:35.334Z,968.06
2017-10-29T02:40:35.248Z,967.99
2017-10-29T02:41:35.171Z,967.97
2017-10-29T02:42:35.106Z,967.97
2017-10-29T02:43:35.010Z,968.00
2017-10-29T02:44:34.927Z,967.94
2017-10-29T02:45:34.846Z,968.00
2017-10-29T02:46:34.764Z,968.01
2017-10-29T02:47:34.684Z,967.90
2017-10-29T02:48:34.606Z,967.86
2017-10-29T02:49:34.523Z,967.81
2017-10-29T02:50:34.443Z,967.91
2017-10-29T02:51:34.363Z,967.74
2017-10-29T02:52:34.296Z,967.54
2017-10-29T02:53:34.200Z,967.57
2017-10-29T02:54:34.120Z,967.51
2017-10-29T02:55:34.038Z,967.55
2017-10-29T02:56:33.963Z,967.45
2017-10-29T02:57:33.877Z,967.44
2017-10-29T02:58:33.797Z,967.41
2017-10-29T02:59:33.716Z,967.33
2017-10-29T03:00:33.636Z,967.44
2017-10-29T03:01:33.555Z,967.49
2017-10-29T03:02:33.477Z,967.32
2017-10-29T03:03:33.396Z,967.32
2017-10-29T03:04:33.312Z,967.34
2017-10-29T03:05:33.231Z,967.21
2017-10-29T03:06:33.152Z,967.25
2017-10-29T03:07:33.070Z,967.19
2017-10-29T03:08:32.990Z,967.20
2017-10-29T03:09:32.908Z,967.14
2017-10-29T03:10:32.828Z,967.08
2017-10-29T03:11:32.747Z,967.03
2017-10-29T03:12:32.666Z,967.01
2017-10-29T03:13:32.585Z,966.98
2017-10-29T03:14:32.519Z,966.99
2017-10-29T03:15:32.423Z,966.93
2017-10-29T03:16:32.344Z,966.90
2017-10-29T03:17:32.262Z,966.96
2017-10-29T03:18:32.185Z,966.98
2017-10-29T03:19:32.105Z,967.10
2017-10-29T03:20:32.022Z,966.92
2017-10-29T03:21:31.939Z,966.90
2017-10-29T03:22:31.858Z,966.97
2017-10-29T03:23:31.778Z,966.90
2017-10-29T03:24:31.698Z,966.91
2017-10-29T03:25:31.616Z,966.81
2017-10-29T03:26:31.535Z,966.85
2017-10-29T03:27:31.456Z,966.85
2017-10-29T03:28:31.375Z,966.69
2017-10-29T03:29:31.294Z,966.80
2017-10-29T03:30:31.216Z,966.85
2017-10-29T03:31:31.135Z,966.63
2017-10-29T03:32:31.053Z,966.71
2017-10-29T03:33:30.971Z,966.68
2017-10-29T03:34:30.890Z,966.51
2017-10-29T03:35:30.811Z,966.57
2017-10-29T03:36:30.731Z,966.47
2017-10-29T03:37:30.648Z,966.51
2017-10-29T03:38:30.570Z,966.51
2017-10-29T03:39:30.487Z,966.49
2017-10-29T03:40:30.408Z,966.60
2017-10-29T03:41:30.328Z,966.48
2017-10-29T03:42:30.244Z,966.40
2017-10-29T03:43:30.165Z,966.41
2017-10-29T03:44:30.084Z,966.40
2017-10-29T03:45:30.005Z,966.34
2017-10-29T03:46:29.923Z,966.21
2017-10-29T03:47:29.842Z,966.16
2017-10-29T03:48:29.763Z,966.11
2017-10-29T03:49:29.681Z,966.28
2017-10-29T03:50:29.601Z,966.29
2017-10-29T03:51:29.526Z,966.21
2017-10-29T03:52:29.493Z,966.13
2017-10-29T03:53:29.372Z,966.14
2017-10-29T03:54:29.278Z,966.12
2017-10-29T03:55:29.198Z,966.02
2017-10-29T03:56:29.117Z,965.93
2017-10-29T03:57:29.037Z,965.89
2017-10-29T03:58:28.973Z,965.80
2017-10-29T03:59:28.876Z,965.83
2017-10-29T04:00:28.798Z,965.70
2017-10-29T04:01:28.715Z,965.61
2017-10-29T04:02:28.634Z,965.81
2017-10-29T04:03:28.555Z,965.63
2017-10-29T04:04:28.477Z,965.62
2017-10-29T04:05:28.393Z,965.49
2017-10-29T04:06:28.313Z,965.39
2017-10-29T04:07:28.232Z,965.51
2017-10-29T04:08:28.150Z,965.45
2017-10-29T04:09:28.080Z,965.47
2017-10-29T04:10:27.994Z,965.47
2017-10-29T04:11:27.914Z,965.43
2017-10-29T04:12:27.838Z,965.42
2017-10-29T04:13:27.748Z,965.43
2017-10-29T04:14:27.669Z,965.42
2017-10-29T04:15:27.588Z,965.44
2017-10-29T04:16:27.508Z,965.44
2017-10-29T04:17:27.427Z,965.48
2017-10-29T04:18:27.352Z,965.41
2017-10-29T04:19:27.267Z,965.41
2017-10-29T04:20:27.186Z,965.38
2017-10-29T04:21:27.108Z,965.43
2017-10-29T04:22:27.034Z,965.37
2017-10-29T04:23:27.091Z,965.28
2017-10-29T04:24:26.873Z,965.29
2017-10-29T04:25:26.795Z,965.16
2017-10-29T04:26:26.705Z,965.17
2017-10-29T04:27:26.727Z,965.15
2017-10-29T04:28:26.544Z,965.09
2017-10-29T04:29:26.832Z,965.03
2017-10-29T04:30:26.549Z,965.04
2017-10-29T04:31:26.470Z,965.06
2017-10-29T04:32:26.598Z,965.05
2017-10-29T04:33:26.462Z,964.99
2017-10-29T04:34:26.295Z,965.05
2017-10-29T04:35:25.981Z,965.00
2017-10-29T04:36:26.505Z,965.00
2017-10-29T04:37:25.982Z,964.86
2017-10-29T04:38:25.742Z,964.88
2017-10-29T04:39:25.669Z,964.86
2017-10-29T04:40:25.611Z,964.74
2017-10-29T04:41:25.586Z,964.88
2017-10-29T04:42:25.546Z,964.82
2017-10-29T04:43:25.385Z,964.76
2017-10-29T04:44:25.312Z,964.85
2017-10-29T04:45:25.180Z,964.74
2017-10-29T04:46:25.099Z,964.70
2017-10-29T04:47:25.227Z,964.61
2017-10-29T04:48:25.162Z,964.62
2017-10-29T04:49:24.923Z,964.68
2017-10-29T04:50:24.937Z,964.48
2017-10-29T04:51:24.792Z,964.59
2017-10-29T04:52:24.682Z,964.44
2017-10-29T04:53:24.555Z,964.40
2017-10-29T04:54:24.695Z,964.50
2017-10-29T04:55:24.397Z,964.40
2017-10-29T04:56:24.302Z,964.33
2017-10-29T04:57:24.217Z,964.39
2017-10-29T04:58:24.605Z,964.34
2017-10-29T04:59:24.076Z,964.30
2017-10-29T05:00:24.106Z,964.48
2017-10-29T05:01:23.945Z,964.38
2017-10-29T05:02:23.904Z,964.23
2017-10-29T05:03:23.931Z,964.30
2017-10-29T05:04:23.658Z,964.32
2017-10-29T05:05:23.606Z,964.31
2017-10-29T05:06:23.504Z,964.34
2017-10-29T05:07:23.993Z,964.15
2017-10-29T05:08:23.420Z,964.14
2017-10-29T05:09:23.436Z,964.21
2017-10-29T05:10:23.542Z,964.20
2017-10-29T05:11:23.134Z,964.10
2017-10-29T05:12:23.072Z,964.03
2017-10-29T05:13:22.929Z,964.09
2017-10-29T05:14:22.881Z,964.04
2017-10-29T05:15:22.854Z,964.08
2017-10-29T05:16:22.854Z,964.09
2017-10-29T05:17:22.666Z,964.02
2017-10-29T05:18:22.567Z,963.95
2017-10-29T05:19:22.453Z,964.02
2017-10-29T05:20:22.398Z,963.99
2017-10-29T05:21:22.457Z,964.03
2017-10-29T05:22:22.211Z,963.97
2017-10-29T05:23:22.196Z,964.05
2017-10-29T05:24:22.097Z,963.95
2017-10-29T05:25:21.980Z,964.00
2017-10-29T05:26:21.905Z,964.09
2017-10-29T05:27:21.853Z,964.00
2017-10-29T05:28:21.731Z,964.03
2017-10-29T05:29:21.649Z,963.93
2017-10-29T05:30:21.836Z,963.90
2017-10-29T05:31:21.520Z,963.95
2017-10-29T05:32:21.934Z,964.05
2017-10-29T05:33:21.361Z,963.99
2017-10-29T05:34:21.365Z,964.02
2017-10-29T05:35:21.375Z,964.05
2017-10-29T05:36:21.228Z,963.99
2017-10-29T05:37:21.026Z,963.82
2017-10-29T05:38:21.038Z,963.64
2017-10-29T05:39:20.926Z,963.69
2017-10-29T05:40:21.490Z,963.71
2017-10-29T05:41:20.982Z,963.75
2017-10-29T05:42:20.989Z,963.64
2017-10-29T05:43:20.565Z,963.67
2017-10-29T05:44:20.464Z,963.56
2017-10-29T05:45:21.214Z,963.54
2017-10-29T05:46:20.996Z,963.53
2017-10-29T05:47:20.831Z,963.42
2017-10-29T05:48:20.327Z,963.39
2017-10-29T05:49:20.221Z,963.37
2017-10-29T05:50:20.329Z,963.33
2017-10-29T05:51:20.834Z,963.43
2017-10-29T05:52:19.818Z,963.34
2017-10-29T05:53:20.448Z,963.34
2017-10-29T05:54:20.052Z,963.21
2017-10-29T05:55:19.686Z,963.18
2017-10-29T05:56:19.679Z,963.20
2017-10-29T05:57:19.680Z,963.34
2017-10-29T05:58:19.561Z,962.98
2017-10-29T05:59:19.481Z,963.07
2017-10-29T06:00:19.570Z,963.00
2017-10-29T06:01:19.581Z,962.89
2017-10-29T06:02:19.513Z,962.90
2017-10-29T06:03:19.188Z,962.88
2017-10-29T06:04:18.879Z,962.94
2017-10-29T06:05:19.011Z,962.98
2017-10-29T06:06:18.887Z,962.99
2017-10-29T06:07:19.217Z,962.99
2017-10-29T06:08:18.564Z,962.90
2017-10-29T06:09:18.859Z,962.90
2017-10-29T06:10:18.946Z,962.95
2017-10-29T06:11:18.439Z,962.87
2017-10-29T06:12:20.552Z,963.14
2017-10-29T06:13:18.437Z,962.86
2017-10-29T06:14:18.083Z,962.73
2017-10-29T06:15:18.242Z,962.98
2017-10-29T06:16:18.529Z,962.90
2017-10-29T06:17:17.955Z,962.93
2017-10-29T06:18:17.801Z,962.85
2017-10-29T06:19:18.743Z,962.92
2017-10-29T06:20:17.622Z,962.82
2017-10-29T06:21:17.726Z,962.82
2017-10-29T06:22:17.522Z,962.78
2017-10-29T06:23:17.410Z,962.80
2017-10-29T06:24:17.273Z,963.03
2017-10-29T06:25:17.194Z,962.56
2017-10-29T06:26:17.115Z,962.74
2017-10-29T06:27:17.206Z,962.73
2017-10-29T06:28:16.975Z,962.73
2017-10-29T06:29:16.880Z,962.68
2017-10-29T06:30:16.813Z,962.63
2017-10-29T06:31:16.750Z,962.64
2017-10-29T06:32:16.679Z,962.71
2017-10-29T06:33:16.706Z,962.91
2017-10-29T06:34:17.045Z,962.94
2017-10-29T06:35:16.535Z,962.71
2017-10-29T06:36:16.317Z,962.85
2017-10-29T06:37:16.351Z,962.70
2017-10-29T06:38:16.354Z,962.82
2017-10-29T06:39:16.379Z,962.68
2017-10-29T06:40:16.108Z,962.69
2017-10-29T06:41:15.979Z,962.59
2017-10-29T06:42:16.070Z,962.85
2017-10-29T06:43:16.532Z,962.71
2017-10-29T06:44:16.599Z,962.72
2017-10-29T06:45:15.681Z,962.76
2017-10-29T06:46:15.630Z,962.61
2017-10-29T06:47:15.674Z,962.75
2017-10-29T06:48:15.402Z,962.42
2017-10-29T06:49:15.401Z,962.80
2017-10-29T06:50:15.229Z,962.73
2017-10-29T06:51:17.217Z,962.63
2017-10-29T06:52:17.596Z,962.68
2017-10-29T06:53:15.027Z,962.70
2017-10-29T06:54:14.891Z,962.77
2017-10-29T06:55:15.991Z,962.63
2017-10-29T06:56:14.732Z,962.74
2017-10-29T06:57:14.967Z,962.40
2017-10-29T06:58:14.586Z,962.72
2017-10-29T06:59:14.654Z,962.64
2017-10-29T07:00:14.451Z,962.54
2017-10-29T07:01:14.520Z,962.51
2017-10-29T07:02:14.261Z,962.65
2017-10-29T07:03:14.203Z,962.70
2017-10-29T07:04:14.581Z,962.68
2017-10-29T07:05:14.110Z,962.71
2017-10-29T07:06:14.498Z,962.74
2017-10-29T07:07:15.621Z,962.72
2017-10-29T07:08:15.581Z,962.64
2017-10-29T07:09:13.702Z,962.68
2017-10-29T07:10:16.572Z,962.73
2017-10-29T07:11:13.564Z,962.77
2017-10-29T07:12:13.511Z,962.80
2017-10-29T07:13:13.484Z,962.78
2017-10-29T07:14:13.304Z,962.57
2017-10-29T07:15:13.439Z,962.65
2017-10-29T07:16:13.656Z,962.84
2017-10-29T07:17:13.087Z,962.85
2017-10-29T07:18:13.212Z,962.72
2017-10-29T07:19:12.925Z,962.79
2017-10-29T07:20:12.845Z,962.83
2017-10-29T07:21:12.823Z,962.83
2017-10-29T07:22:12.762Z,962.79
2017-10-29T07:23:12.763Z,962.76
2017-10-29T07:24:12.874Z,962.87
2017-10-29T07:25:12.473Z,962.70
2017-10-29T07:26:12.361Z,962.91
2017-10-29T07:27:12.395Z,962.79
2017-10-29T07:28:12.233Z,962.84
2017-10-29T07:29:12.560Z,962.79
2017-10-29T07:30:12.198Z,963.02
2017-10-29T07:31:12.331Z,962.77
2017-10-29T07:32:12.504Z,962.88
2017-10-29T07:33:11.815Z,962.86
2017-10-29T07:34:11.991Z,962.90
2017-10-29T07:35:12.236Z,962.97
2017-10-29T07:36:11.739Z,962.96
2017-10-29T07:37:11.633Z,963.00
2017-10-29T07:38:11.413Z,963.10
2017-10-29T07:39:11.409Z,963.12
2017-10-29T07:40:11.349Z,963.04
2017-10-29T07:41:11.254Z,962.90
2017-10-29T07:42:11.258Z,962.97
2017-10-29T07:43:11.255Z,963.04
2017-10-29T07:44:10.972Z,962.91
2017-10-29T07:45:10.981Z,962.88
2017-10-29T07:46:11.289Z,963.00
2017-10-29T07:47:10.878Z,963.02
2017-10-29T07:48:10.662Z,963.02
2017-10-29T07:49:10.588Z,963.13
2017-10-29T07:50:10.491Z,963.21
2017-10-29T07:51:10.395Z,963.24
2017-10-29T07:52:10.370Z,963.63
2017-10-29T07:53:10.308Z,963.22
2017-10-29T07:54:10.218Z,963.20
2017-10-29T07:55:10.218Z,963.01
2017-10-29T07:56:10.327Z,963.24
2017-10-29T07:57:09.986Z,963.16
2017-10-29T07:58:09.885Z,963.17
2017-10-29T07:59:09.886Z,963.26
2017-10-29T08:00:09.679Z,963.21
2017-10-29T08:01:09.766Z,963.15
2017-10-29T08:02:09.620Z,963.23
2017-10-29T08:03:09.463Z,963.16
2017-10-29T08:04:09.475Z,963.02
2017-10-29T08:05:09.284Z,963.44
2017-10-29T08:06:09.310Z,963.24
2017-10-29T08:07:09.123Z,963.31
2017-10-29T08:08:09.041Z,963.33
2017-10-29T08:09:09.067Z,963.33
2017-10-29T08:10:08.886Z,963.42
2017-10-29T08:11:09.808Z,963.35
2017-10-29T08:12:08.900Z,963.46
2017-10-29T08:13:08.649Z,963.31
2017-10-29T08:14:11.089Z,963.32
2017-10-29T08:15:08.497Z,963.33
2017-10-29T08:16:08.413Z,963.53
2017-10-29T08:17:08.332Z,963.40
2017-10-29T08:18:08.255Z,963.49
2017-10-29T08:19:08.174Z,963.61
2017-10-29T08:20:08.099Z,963.64
2017-10-29T08:21:08.022Z,963.66
2017-10-29T08:22:08.335Z,963.79
2017-10-29T08:23:07.866Z,963.98
2017-10-29T08:24:07.783Z,963.76
2017-10-29T08:25:07.702Z,963.86
2017-10-29T08:26:07.624Z,963.94
2017-10-29T08:27:07.567Z,963.82
2017-10-29T08:28:07.466Z,963.89
2017-10-29T08:29:07.387Z,963.82
2017-10-29T08:30:07.306Z,963.93
2017-10-29T08:31:07.230Z,963.81
2017-10-29T08:32:07.155Z,963.79
2017-10-29T08:33:07.133Z,963.98
2017-10-29T08:34:06.993Z,964.08
2017-10-29T08:35:06.917Z,964.21
2017-10-29T08:36:06.834Z,964.13
2017-10-29T08:37:06.755Z,964.00
2017-10-29T08:38:06.680Z,964.12
2017-10-29T08:39:06.599Z,964.27
2017-10-29T08:40:07.092Z,964.14
2017-10-29T08:41:06.454Z,964.06
2017-10-29T08:42:06.362Z,964.13
2017-10-29T08:43:06.285Z,964.14
2017-10-29T08:44:06.207Z,964.11
2017-10-29T08:45:06.125Z,964.31
2017-10-29T08:46:06.048Z,964.38
2017-10-29T08:47:05.970Z,964.42
2017-10-29T08:48:05.892Z,964.39
2017-10-29T08:49:05.812Z,964.29
2017-10-29T08:50:05.733Z,964.22
2017-10-29T08:51:05.654Z,964.29
2017-10-29T08:52:05.579Z,964.28
2017-10-29T08:53:05.497Z,964.41
2017-10-29T08:54:05.419Z,964.46
2017-10-29T08:55:05.340Z,964.49
2017-10-29T08:56:05.262Z,964.49
2017-10-29T08:57:05.186Z,964.58
2017-10-29T08:58:05.104Z,964.73
2017-10-29T08:59:05.025Z,964.88
2017-10-29T09:00:04.948Z,965.08
2017-10-29T09:01:04.869Z,964.98
2017-10-29T09:02:04.798Z,965.04
2017-10-29T09:03:04.712Z,964.96
2017-10-29T09:04:04.633Z,965.03
2017-10-29T09:05:04.554Z,965.30
2017-10-29T09:06:04.489Z,965.20
2017-10-29T09:07:04.398Z,965.81
2017-10-29T09:08:04.319Z,965.36
2017-10-29T09:09:04.240Z,965.56
2017-10-29T09:10:04.163Z,964.87
2017-10-29T09:11:04.103Z,965.73
2017-10-29T09:12:04.006Z,965.28
2017-10-29T09:13:03.926Z,965.22
2017-10-29T09:14:03.847Z,965.49
2017-10-29T09:15:03.770Z,965.30
2017-10-29T09:16:03.691Z,965.39
2017-10-29T09:17:03.611Z,965.41
2017-10-29T09:18:03.533Z,965.42
2017-10-29T09:19:03.454Z,965.29
2017-10-29T09:20:03.385Z,965.11
2017-10-29T09:21:03.297Z,965.25
2017-10-29T09:22:03.217Z,965.25
2017-10-29T09:23:03.140Z,965.55
2017-10-29T09:24:03.064Z,965.41
2017-10-29T09:25:02.980Z,965.49
2017-10-29T09:26:02.902Z,965.58
2017-10-29T09:27:02.827Z,965.47
2017-10-29T09:28:02.866Z,965.73
2017-10-29T09:29:02.666Z,965.63
2017-10-29T09:30:02.590Z,965.59
2017-10-29T09:31:02.506Z,965.65
2017-10-29T09:32:02.426Z,965.65
2017-10-29T09:33:02.350Z,965.74
2017-10-29T09:34:02.271Z,965.74
2017-10-29T09:35:02.192Z,965.78
2017-10-29T09:36:02.112Z,965.88
2017-10-29T09:37:02.034Z,965.88
2017-10-29T09:38:01.954Z,965.88
2017-10-29T09:39:01.878Z,965.95
2017-10-29T09:40:01.805Z,966.19
2017-10-29T09:41:01.720Z,966.28
2017-10-29T09:42:01.777Z,966.18
2017-10-29T09:43:01.560Z,966.27
2017-10-29T09:44:01.484Z,966.08
2017-10-29T09:45:01.428Z,966.28
2017-10-29T09:46:01.334Z,966.21
2017-10-29T09:47:01.247Z,966.34
2017-10-29T09:48:01.191Z,966.30
2017-10-29T09:49:01.087Z,966.24
2017-10-29T09:50:01.016Z,966.50
2017-10-29T09:51:00.930Z,966.15
2017-10-29T09:52:00.851Z,966.47
2017-10-29T09:53:00.772Z,966.52
2017-10-29T09:54:00.693Z,966.64
2017-10-29T09:55:00.615Z,966.57
2017-10-29T09:56:00.609Z,966.61
2017-10-29T09:57:00.457Z,966.78
2017-10-29T09:58:00.395Z,966.72
2017-10-29T09:59:00.299Z,966.91
2017-10-29T10:00:00.229Z,967.46
2017-10-29T10:01:00.142Z,966.97
2017-10-29T10:02:00.065Z,967.00
2017-10-29T10:02:59.985Z,966.90
2017-10-29T10:03:59.906Z,967.07
2017-10-29T10:04:59.827Z,967.18
2017-10-29T10:05:59.748Z,967.03
2017-10-29T10:06:59.670Z,967.20
2017-10-29T10:07:59.591Z,967.30
2017-10-29T10:08:59.511Z,967.23
2017-10-29T10:09:59.461Z,967.33
2017-10-29T10:10:59.367Z,967.31
2017-10-29T10:11:59.290Z,967.29
2017-10-29T10:12:59.234Z,967.41
2017-10-29T10:13:59.140Z,967.39
2017-10-29T10:14:59.233Z,967.56
2017-10-29T10:15:58.960Z,967.36
2017-10-29T10:16:58.880Z,967.45
2017-10-29T10:17:58.803Z,967.57
2017-10-29T10:18:58.724Z,967.45
2017-10-29T10:19:58.644Z,967.45
2017-10-29T10:20:58.564Z,967.50
2017-10-29T10:21:58.490Z,967.55
2017-10-29T10:22:58.411Z,967.48
2017-10-29T10:23:58.329Z,967.43
2017-10-29T10:24:58.251Z,967.41
2017-10-29T10:25:58.171Z,967.47
2017-10-29T10:26:58.094Z,967.36
2017-10-29T10:27:58.015Z,967.58
2017-10-29T10:28:57.936Z,967.52
2017-10-29T10:29:57.860Z,967.60
2017-10-29T10:30:57.778Z,967.47
2017-10-29T10:31:57.702Z,967.55
2017-10-29T10:32:57.622Z,967.55
2017-10-29T10:33:57.625Z,967.58
2017-10-29T10:34:57.467Z,967.78
2017-10-29T10:35:57.389Z,967.82
2017-10-29T10:36:57.346Z,967.75
2017-10-29T10:37:57.297Z,967.80
2017-10-29T10:38:57.153Z,967.90
2017-10-29T10:39:57.076Z,967.97
2017-10-29T10:40:57.013Z,967.99
2017-10-29T10:41:56.928Z,967.85
2017-10-29T10:42:57.035Z,967.76
2017-10-29T10:43:56.765Z,968.00
2017-10-29T10:44:56.726Z,968.01
2017-10-29T10:45:56.641Z,967.90
2017-10-29T10:46:56.538Z,967.78
2017-10-29T10:47:56.504Z,967.98
2017-10-29T10:48:56.660Z,968.10
2017-10-29T10:49:56.298Z,968.03
2017-10-29T10:50:56.225Z,968.42
2017-10-29T10:51:56.268Z,968.22
2017-10-29T10:52:56.100Z,968.20
2017-10-29T10:53:56.037Z,968.14
2017-10-29T10:54:55.968Z,967.89
2017-10-29T10:55:55.857Z,968.08
2017-10-29T10:56:55.803Z,968.08
2017-10-29T10:57:55.710Z,968.03
2017-10-29T10:58:55.608Z,968.07
2017-10-29T10:59:55.592Z,968.15
2017-10-29T11:00:55.463Z,968.04
2017-10-29T11:01:55.432Z,968.06
2017-10-29T11:02:55.311Z,968.10
2017-10-29T11:03:55.213Z,968.14
2017-10-29T11:04:55.127Z,968.29
2017-10-29T11:05:55.247Z,968.06
2017-10-29T11:06:54.985Z,968.20
2017-10-29T11:07:54.948Z,968.17
2017-10-29T11:08:54.852Z,968.25
2017-10-29T11:09:54.735Z,968.19
2017-10-29T11:10:54.657Z,968.23
2017-10-29T11:11:54.984Z,968.19
2017-10-29T11:12:54.576Z,968.31
2017-10-29T11:13:54.477Z,968.33
2017-10-29T11:14:54.370Z,968.34
2017-10-29T11:15:54.276Z,968.24
2017-10-29T11:16:54.197Z,968.44
2017-10-29T11:17:54.278Z,968.40
2017-10-29T11:18:54.158Z,968.26
2017-10-29T11:19:54.023Z,968.42
2017-10-29T11:20:53.901Z,968.59
2017-10-29T11:21:53.826Z,968.45
2017-10-29T11:22:53.731Z,968.56
2017-10-29T11:23:53.819Z,968.41
2017-10-29T11:24:53.598Z,968.61
2017-10-29T11:25:53.501Z,968.47
2017-10-29T11:26:53.461Z,968.67
2017-10-29T11:27:53.403Z,968.77
2017-10-29T11:28:53.306Z,968.65
2017-10-29T11:29:53.264Z,968.76
2017-10-29T11:30:53.119Z,968.44
2017-10-29T11:31:53.270Z,968.81
2017-10-29T11:32:52.968Z,968.93
2017-10-29T11:33:52.969Z,968.97
2017-10-29T11:34:52.866Z,968.70
2017-10-29T11:35:52.747Z,968.80
2017-10-29T11:36:52.699Z,968.74
2017-10-29T11:37:52.642Z,969.06
2017-10-29T11:38:52.595Z,968.87
2017-10-29T11:39:52.593Z,968.76
2017-10-29T11:40:52.403Z,968.90
2017-10-29T11:41:52.313Z,969.09
2017-10-29T11:42:52.247Z,968.98
2017-10-29T11:43:52.168Z,969.32
2017-10-29T11:44:52.152Z,968.83
2017-10-29T11:45:52.064Z,968.89
2017-10-29T11:46:52.004Z,969.03
2017-10-29T11:47:51.936Z,969.04
2017-10-29T11:48:51.836Z,969.13
2017-10-29T11:49:52.046Z,969.07
2017-10-29T11:50:51.851Z,969.02
2017-10-29T11:51:51.617Z,969.44
2017-10-29T11:52:51.565Z,969.33
2017-10-29T11:53:51.589Z,969.25
2017-10-29T11:54:51.433Z,969.10
2017-10-29T11:55:51.350Z,969.10
2017-10-29T11:56:51.681Z,969.20
2017-10-29T11:57:51.470Z,969.14
2017-10-29T11:58:51.223Z,969.29
2017-10-29T11:59:51.078Z,969.11
2017-10-29T12:00:51.018Z,969.25
2017-10-29T12:01:51.018Z,969.01
2017-10-29T12:02:51.152Z,969.03
2017-10-29T12:03:50.815Z,969.16
2017-10-29T12:04:50.754Z,969.21
2017-10-29T12:05:50.769Z,969.12
2017-10-29T12:06:50.648Z,969.40
2017-10-29T12:07:50.558Z,968.93
2017-10-29T12:08:50.484Z,969.16
2017-10-29T12:09:50.466Z,969.39
2017-10-29T12:10:50.330Z,969.35
2017-10-29T12:11:50.395Z,969.10
2017-10-29T12:12:50.256Z,969.32
2017-10-29T12:13:50.539Z,969.32
2017-10-29T12:14:50.071Z,969.56
2017-10-29T12:15:50.196Z,969.19
2017-10-29T12:16:49.984Z,969.27
2017-10-29T12:17:50.318Z,969.26
2017-10-29T12:18:50.242Z,969.37
2017-10-29T12:19:49.804Z,969.24
2017-10-29T12:20:50.522Z,969.25
2017-10-29T12:21:49.587Z,969.12
2017-10-29T12:22:49.783Z,969.58
2017-10-29T12:23:49.530Z,969.12
2017-10-29T12:24:49.748Z,969.58
2017-10-29T12:25:49.295Z,969.65
2017-10-29T12:26:49.216Z,969.66
2017-10-29T12:27:49.392Z,969.18